createdAt,value
2022-12-24T00:01:12.351Z,69.32
2022-12-24T00:03:45.718Z,69.50
2022-12-24T00:06:23.369Z,69.49
2022-12-24T00:09:00.277Z,69.33
2022-12-24T00:11:44.030Z,69.09
2022-12-24T00:14:17.365Z,69.16
2022-12-24T00:16:50.813Z,69.10
2022-12-24T00:19:25.884Z,68.94
2022-12-24T00:21:59.832Z,69.37
2022-12-24T00:24:32.163Z,69.46
2022-12-24T00:27:06.603Z,69.53
2022-12-24T00:29:39.043Z,69.62
2022-12-24T00:32:13.894Z,69.83
2022-12-24T00:34:48.495Z,69.71
2022-12-24T00:37:20.518Z,69.61
2022-12-24T00:39:52.963Z,69.48
2022-12-24T00:42:26.134Z,69.98
2022-12-24T00:44:58.943Z,70.21
2022-12-24T00:47:35.562Z,70.24
2022-12-24T00:50:11.136Z,70.02
2022-12-24T00:52:43.024Z,69.84
2022-12-24T00:55:17.990Z,70.15
2022-12-24T00:57:51.024Z,70.57
2022-12-24T01:00:25.726Z,70.65
2022-12-24T01:02:58.035Z,70.63
2022-12-24T01:05:31.269Z,70.90
2022-12-24T01:08:04.660Z,71.08
2022-12-24T01:10:37.315Z,70.44
2022-12-24T01:13:11.691Z,70.46
2022-12-24T01:15:44.201Z,70.27
2022-12-24T01:18:19.656Z,70.59
2022-12-24T01:21:00.761Z,70.26
2022-12-24T01:23:34.768Z,70.51
2022-12-24T01:26:08.592Z,70.71
2022-12-24T01:28:42.370Z,70.52
2022-12-24T01:31:17.889Z,70.46
2022-12-24T01:33:53.182Z,70.23
2022-12-24T01:36:25.507Z,70.43
2022-12-24T01:38:58.699Z,70.72
2022-12-24T01:41:52.003Z,70.70
2022-12-24T01:44:35.152Z,70.58
2022-12-24T01:47:12.724Z,70.34
2022-12-24T01:49:46.511Z,70.37
2022-12-24T01:52:20.777Z,70.34
2022-12-24T01:54:56.068Z,70.46
2022-12-24T01:57:31.565Z,70.72
2022-12-24T02:00:09.573Z,70.62
2022-12-24T02:02:44.926Z,70.99
2022-12-24T02:05:19.947Z,70.98
2022-12-24T02:07:53.232Z,70.99
2022-12-24T02:10:27.523Z,71.00
2022-12-24T02:13:00.880Z,71.00
2022-12-24T02:15:39.961Z,70.90
2022-12-24T02:18:19.441Z,70.98
2022-12-24T02:21:10.740Z,71.18
2022-12-24T02:23:55.979Z,71.18
2022-12-24T02:26:41.252Z,71.31
2022-12-24T02:29:32.372Z,71.28
2022-12-24T02:32:07.706Z,71.29
2022-12-24T02:34:42.082Z,71.45
2022-12-24T02:37:17.823Z,71.52
2022-12-24T02:39:53.962Z,71.54
2022-12-24T02:42:30.409Z,71.43
2022-12-24T02:45:06.197Z,71.67
2022-12-24T02:47:39.720Z,71.84
2022-12-24T02:50:16.611Z,71.95
2022-12-24T02:52:51.008Z,71.95
2022-12-24T02:55:26.978Z,72.13
2022-12-24T02:58:12.902Z,72.27
2022-12-24T03:00:55.405Z,72.27
2022-12-24T03:03:38.227Z,72.32
2022-12-24T03:06:23.110Z,72.10
2022-12-24T03:09:01.082Z,71.90
2022-12-24T03:11:37.283Z,72.12
2022-12-24T03:14:09.978Z,72.37
2022-12-24T03:16:45.856Z,72.10
2022-12-24T03:19:19.239Z,71.95
2022-12-24T03:21:52.214Z,72.03
2022-12-24T03:24:24.972Z,72.09
2022-12-24T03:26:59.817Z,72.24
2022-12-24T03:29:32.228Z,72.33
2022-12-24T03:32:06.253Z,72.37
2022-12-24T03:34:40.203Z,72.43
2022-12-24T03:37:12.403Z,72.33
2022-12-24T03:39:45.397Z,72.32
2022-12-24T03:42:17.309Z,72.59
2022-12-24T03:44:50.275Z,72.93
2022-12-24T03:47:23.076Z,73.33
2022-12-24T03:49:57.036Z,73.45
2022-12-24T03:52:29.659Z,73.60
2022-12-24T03:55:05.569Z,73.73
2022-12-24T03:57:39.846Z,73.74
2022-12-24T04:00:16.333Z,73.86
2022-12-24T04:02:48.729Z,73.77
2022-12-24T04:05:28.700Z,73.77
2022-12-24T04:08:01.071Z,73.76
2022-12-24T04:10:36.580Z,73.84
2022-12-24T04:13:14.981Z,73.56
2022-12-24T04:15:47.797Z,73.51
2022-12-24T04:18:21.225Z,73.51
2022-12-24T04:20:55.780Z,73.55
2022-12-24T04:23:29.334Z,73.42
2022-12-24T04:26:05.598Z,73.34
2022-12-24T04:28:38.746Z,73.17
2022-12-24T04:31:13.634Z,73.16
2022-12-24T04:33:46.746Z,73.13
2022-12-24T04:36:20.994Z,73.26
2022-12-24T04:38:53.838Z,73.21
2022-12-24T04:41:28.282Z,73.04
2022-12-24T04:44:02.685Z,73.14
2022-12-24T04:46:35.629Z,73.23
2022-12-24T04:49:11.816Z,73.32
2022-12-24T04:51:46.769Z,73.38
2022-12-24T04:54:20.049Z,73.46
2022-12-24T04:56:53.451Z,73.79
2022-12-24T04:59:29.640Z,73.65
2022-12-24T05:02:04.680Z,73.72
2022-12-24T05:04:37.096Z,73.39
2022-12-24T05:07:09.035Z,73.09
2022-12-24T05:09:42.930Z,73.02
2022-12-24T05:12:17.730Z,72.68
2022-12-24T05:14:52.501Z,72.86
2022-12-24T05:17:27.475Z,72.93
2022-12-24T05:20:00.030Z,73.10
2022-12-24T05:22:53.539Z,73.08
2022-12-24T05:25:43.372Z,73.45
2022-12-24T05:28:16.856Z,73.70
2022-12-24T05:30:49.828Z,73.84
2022-12-24T05:33:23.100Z,73.79
2022-12-24T05:35:56.767Z,73.84
2022-12-24T05:38:28.896Z,73.76
2022-12-24T05:41:06.094Z,73.92
2022-12-24T05:43:40.594Z,74.09
2022-12-24T05:46:16.781Z,73.90
2022-12-24T05:48:51.796Z,73.64
2022-12-24T05:51:26.785Z,73.58
2022-12-24T05:54:02.475Z,73.61
2022-12-24T05:56:35.812Z,73.65
2022-12-24T05:59:10.812Z,73.75
2022-12-24T06:01:46.465Z,73.75
2022-12-24T06:04:26.533Z,73.76
2022-12-24T06:07:01.848Z,73.75
2022-12-24T06:09:35.352Z,73.93
2022-12-24T06:12:08.653Z,74.02
2022-12-24T06:14:43.552Z,73.84
2022-12-24T06:17:17.968Z,74.00
2022-12-24T06:19:52.146Z,73.96
2022-12-24T06:22:26.662Z,73.97
2022-12-24T06:25:01.737Z,73.74
2022-12-24T06:27:36.263Z,73.41
2022-12-24T06:30:12.495Z,73.34
2022-12-24T06:32:49.582Z,73.30
2022-12-24T06:35:24.556Z,72.83
2022-12-24T06:37:58.060Z,73.10
2022-12-24T06:40:31.849Z,73.27
2022-12-24T06:43:05.437Z,73.49
2022-12-24T06:45:40.513Z,73.70
2022-12-24T06:48:14.714Z,73.66
2022-12-24T06:50:48.975Z,73.35
2022-12-24T06:53:27.122Z,73.35
2022-12-24T06:56:05.940Z,73.14
2022-12-24T06:58:41.955Z,73.25
2022-12-24T07:01:18.170Z,73.12
2022-12-24T07:03:53.041Z,72.84
2022-12-24T07:06:29.458Z,73.15
2022-12-24T07:09:04.276Z,73.51
2022-12-24T07:11:39.495Z,73.87
2022-12-24T07:14:13.588Z,73.92
2022-12-24T07:16:47.589Z,74.16
2022-12-24T07:19:21.764Z,74.02
2022-12-24T07:21:54.035Z,73.86
2022-12-24T07:24:27.839Z,73.98
2022-12-24T07:27:01.421Z,74.06
2022-12-24T07:29:35.739Z,74.19
2022-12-24T07:32:13.097Z,74.22
2022-12-24T07:34:47.828Z,74.34
2022-12-24T07:37:21.224Z,74.23
2022-12-24T07:39:54.007Z,74.42
2022-12-24T07:42:30.865Z,74.59
2022-12-24T07:45:06.227Z,74.52
2022-12-24T07:47:40.459Z,74.38
2022-12-24T07:50:14.451Z,73.97
2022-12-24T07:52:50.614Z,74.02
2022-12-24T07:55:23.475Z,73.85
2022-12-24T07:57:56.416Z,73.71
2022-12-24T08:00:30.370Z,73.83
2022-12-24T08:03:06.014Z,73.82
2022-12-24T08:05:40.016Z,73.50
2022-12-24T08:08:13.059Z,73.48
2022-12-24T08:10:48.194Z,73.19
2022-12-24T08:13:22.817Z,73.00
2022-12-24T08:15:55.054Z,73.07
2022-12-24T08:18:28.497Z,73.01
2022-12-24T08:21:01.262Z,73.02
2022-12-24T08:23:33.310Z,72.91
2022-12-24T08:26:07.547Z,72.89
2022-12-24T08:28:40.332Z,72.46
2022-12-24T08:31:16.062Z,72.28
2022-12-24T08:33:49.411Z,72.23
2022-12-24T08:36:21.704Z,72.42
2022-12-24T08:38:53.954Z,72.60
2022-12-24T08:41:27.077Z,72.43
2022-12-24T08:43:59.131Z,72.35
2022-12-24T08:46:33.228Z,72.08
2022-12-24T08:49:06.104Z,72.03
2022-12-24T08:51:42.759Z,71.67
2022-12-24T08:54:19.305Z,71.61
2022-12-24T08:56:51.834Z,71.37
2022-12-24T08:59:25.485Z,71.44
2022-12-24T09:01:57.752Z,71.49
2022-12-24T09:04:30.252Z,71.67
2022-12-24T09:07:05.145Z,71.30
2022-12-24T09:09:38.491Z,71.09
2022-12-24T09:12:13.620Z,70.89
2022-12-24T09:14:46.365Z,70.77
2022-12-24T09:17:20.171Z,70.71
2022-12-24T09:19:53.432Z,70.44
2022-12-24T09:22:26.670Z,70.51
2022-12-24T09:24:58.766Z,70.38
2022-12-24T09:27:32.825Z,70.19
2022-12-24T09:30:07.196Z,69.86
2022-12-24T09:32:39.237Z,69.46
2022-12-24T09:35:12.689Z,69.09
2022-12-24T09:37:45.236Z,69.01
2022-12-24T09:40:28.159Z,69.21
2022-12-24T09:43:01.801Z,69.02
2022-12-24T09:45:40.799Z,68.64
2022-12-24T09:48:16.719Z,68.76
2022-12-24T09:50:53.264Z,68.33
2022-12-24T09:53:29.317Z,68.18
2022-12-24T09:56:05.974Z,68.17
2022-12-24T09:58:41.411Z,67.65
2022-12-24T10:01:17.353Z,67.44
2022-12-24T10:03:53.352Z,67.73
2022-12-24T10:06:29.775Z,67.69
2022-12-24T10:09:07.063Z,67.93
2022-12-24T10:11:51.003Z,67.59
2022-12-24T10:14:36.216Z,67.36
2022-12-24T10:17:29.872Z,66.70
2022-12-24T10:20:24.136Z,66.31
2022-12-24T10:23:08.879Z,66.77
2022-12-24T10:25:47.771Z,66.91
2022-12-24T10:28:24.383Z,66.62
2022-12-24T10:31:01.553Z,67.12
2022-12-24T10:33:39.942Z,67.19
2022-12-24T10:36:14.492Z,66.00
2022-12-24T10:38:48.537Z,66.79
2022-12-24T10:41:23.318Z,66.79
2022-12-24T10:43:57.541Z,67.30
2022-12-24T10:46:36.479Z,67.81
2022-12-24T10:49:12.645Z,67.75
2022-12-24T10:51:52.390Z,68.30
2022-12-24T10:54:28.316Z,69.11
2022-12-24T10:57:02.668Z,71.23
2022-12-24T10:59:45.948Z,71.08
2022-12-24T11:02:32.568Z,70.62
2022-12-24T11:05:08.801Z,70.77
2022-12-24T11:07:44.938Z,70.98
2022-12-24T11:10:26.486Z,71.37
2022-12-24T11:13:35.157Z,71.35
2022-12-24T11:16:01.758Z,71.69
2022-12-24T11:18:35.564Z,72.02
2022-12-24T11:21:09.343Z,72.12
2022-12-24T11:23:43.754Z,72.28
2022-12-24T11:26:26.810Z,72.21
2022-12-24T11:29:15.969Z,72.39
2022-12-24T11:31:52.691Z,72.75
2022-12-24T11:34:31.617Z,72.98
2022-12-24T11:37:17.071Z,73.10
2022-12-24T11:39:53.581Z,73.25
2022-12-24T11:42:34.557Z,73.43
2022-12-24T11:45:23.568Z,74.64
2022-12-24T11:48:00.548Z,75.18
2022-12-24T11:50:35.938Z,75.35
2022-12-24T11:53:16.691Z,75.21
2022-12-24T11:55:52.212Z,75.09
2022-12-24T11:58:35.875Z,75.20
2022-12-24T12:01:16.652Z,75.07
2022-12-24T12:03:54.983Z,75.08
2022-12-24T12:06:34.077Z,75.45
2022-12-24T12:09:09.794Z,75.34
2022-12-24T12:11:45.885Z,75.34
2022-12-24T12:14:24.103Z,75.10
2022-12-24T12:17:05.380Z,75.16
2022-12-24T12:19:44.981Z,75.25
2022-12-24T12:22:25.876Z,75.21
2022-12-24T12:25:00.194Z,75.21
2022-12-24T12:27:37.247Z,75.33
2022-12-24T12:30:19.403Z,75.55
2022-12-24T12:32:58.132Z,75.55
2022-12-24T12:35:37.121Z,75.61
2022-12-24T12:38:16.726Z,75.64
2022-12-24T12:41:28.076Z,75.72
2022-12-24T12:44:20.064Z,75.77
2022-12-24T12:47:04.068Z,76.06
2022-12-24T12:49:45.257Z,76.33
2022-12-24T12:52:24.331Z,76.68
2022-12-24T12:55:06.645Z,76.88
2022-12-24T12:57:40.089Z,76.92
2022-12-24T13:00:22.845Z,77.11
2022-12-24T13:03:18.767Z,77.34
2022-12-24T13:06:29.484Z,77.40
2022-12-24T13:09:27.000Z,77.55
2022-12-24T13:12:14.596Z,77.70
2022-12-24T13:15:03.082Z,77.85
2022-12-24T13:17:51.949Z,78.20
2022-12-24T13:20:29.762Z,77.90
2022-12-24T13:23:16.636Z,77.90
2022-12-24T13:25:56.554Z,78.28
2022-12-24T13:28:38.803Z,78.60
2022-12-24T13:31:32.230Z,78.34
2022-12-24T13:34:07.917Z,86.05
2022-12-24T13:37:05.704Z,92.25
2022-12-24T13:40:15.683Z,92.84
2022-12-24T13:43:09.395Z,92.82
2022-12-24T13:45:48.747Z,91.39
2022-12-24T13:48:33.296Z,95.48
2022-12-24T13:54:06.418Z,92.33
2022-12-24T13:56:41.114Z,91.91
2022-12-24T13:59:36.139Z,91.33
2022-12-24T14:02:22.644Z,90.56
2022-12-24T14:05:05.136Z,89.99
2022-12-24T14:07:38.951Z,88.67
2022-12-24T14:10:25.901Z,88.05
2022-12-24T14:12:57.856Z,88.13
2022-12-24T14:15:58.825Z,87.94
2022-12-24T14:18:34.602Z,87.40
2022-12-24T14:21:08.915Z,87.24
2022-12-24T14:23:46.861Z,87.11
2022-12-24T14:26:21.393Z,86.85
2022-12-24T14:28:57.661Z,86.62
2022-12-24T14:31:31.751Z,86.41
2022-12-24T14:34:13.998Z,86.36
2022-12-24T14:36:48.030Z,86.32
2022-12-24T14:39:26.626Z,86.23
2022-12-24T14:42:06.508Z,86.23
2022-12-24T14:44:45.367Z,86.28
2022-12-24T14:47:27.054Z,86.20
2022-12-24T14:50:12.277Z,86.07
2022-12-24T14:53:10.509Z,85.93
2022-12-24T14:55:47.246Z,85.93
2022-12-24T14:58:26.725Z,85.93
2022-12-24T15:01:02.744Z,85.98
2022-12-24T15:03:36.067Z,86.38
2022-12-24T15:06:10.971Z,85.92
2022-12-24T15:08:45.662Z,85.80
2022-12-24T15:11:23.532Z,85.53
2022-12-24T15:13:57.070Z,85.34
2022-12-24T15:16:32.571Z,85.40
2022-12-24T15:19:09.359Z,86.15
2022-12-24T15:21:48.538Z,86.16
2022-12-24T15:24:32.747Z,85.10
2022-12-24T15:27:19.932Z,84.84
2022-12-24T15:29:58.636Z,84.64
2022-12-24T15:32:31.011Z,84.49
2022-12-24T15:35:04.300Z,84.41
2022-12-24T15:37:40.097Z,84.50
2022-12-24T15:40:26.632Z,84.26
2022-12-24T15:43:01.102Z,84.17
2022-12-24T15:45:35.134Z,84.17
2022-12-24T15:48:12.673Z,84.10
2022-12-24T15:50:48.883Z,84.13
2022-12-24T15:53:25.667Z,84.18
2022-12-24T15:56:11.547Z,83.84
2022-12-24T15:58:47.069Z,83.64
2022-12-24T16:01:31.828Z,83.39
2022-12-24T16:04:17.630Z,83.30
2022-12-24T16:06:58.522Z,83.18
2022-12-24T16:09:46.225Z,82.80
2022-12-24T16:12:26.983Z,82.35
2022-12-24T16:15:01.516Z,82.15
2022-12-24T16:17:37.815Z,81.76
2022-12-24T16:20:21.625Z,81.78
2022-12-24T16:22:54.347Z,81.55
2022-12-24T16:25:29.928Z,81.30
2022-12-24T16:28:06.927Z,81.34
2022-12-24T16:30:45.758Z,80.83
2022-12-24T16:33:20.105Z,80.94
2022-12-24T16:35:52.935Z,80.70
2022-12-24T16:38:47.512Z,80.76
2022-12-24T16:41:24.257Z,80.42
2022-12-24T16:43:57.735Z,79.93
2022-12-24T16:46:31.268Z,79.67
2022-12-24T16:49:07.804Z,79.42
2022-12-24T16:51:46.008Z,79.19
2022-12-24T16:54:19.283Z,79.19
2022-12-24T16:56:51.910Z,79.50
2022-12-24T16:59:27.935Z,79.47
2022-12-24T17:02:05.774Z,79.22
2022-12-24T17:04:41.696Z,79.21
2022-12-24T17:07:15.991Z,78.98
2022-12-24T17:09:49.490Z,78.86
2022-12-24T17:12:23.288Z,78.74
2022-12-24T17:14:56.724Z,78.67
2022-12-24T17:17:31.842Z,78.33
2022-12-24T17:20:05.696Z,78.11
2022-12-24T17:22:39.082Z,77.80
2022-12-24T17:25:15.036Z,77.60
2022-12-24T17:27:47.600Z,77.44
2022-12-24T17:30:21.570Z,77.36
2022-12-24T17:32:53.877Z,77.35
2022-12-24T17:35:27.376Z,77.35
2022-12-24T17:38:00.253Z,76.97
2022-12-24T17:40:35.393Z,76.67
2022-12-24T17:43:11.562Z,76.71
2022-12-24T17:45:45.888Z,76.66
2022-12-24T17:48:19.383Z,76.54
2022-12-24T17:50:51.531Z,76.40
2022-12-24T17:53:27.498Z,76.13
2022-12-24T17:56:00.588Z,75.95
2022-12-24T17:58:35.478Z,75.73
2022-12-24T18:01:10.806Z,75.81
2022-12-24T18:03:46.561Z,75.32
2022-12-24T18:06:19.603Z,75.60
2022-12-24T18:08:55.114Z,75.43
2022-12-24T18:11:32.652Z,75.56
2022-12-24T18:14:08.274Z,75.60
2022-12-24T18:16:42.723Z,75.64
2022-12-24T18:19:19.969Z,75.72
2022-12-24T18:21:54.126Z,75.74
2022-12-24T18:24:29.449Z,75.80
2022-12-24T18:27:06.865Z,75.76
2022-12-24T18:29:42.949Z,75.65
2022-12-24T18:32:18.103Z,75.65
2022-12-24T18:34:58.352Z,75.57
2022-12-24T18:37:30.645Z,75.39
2022-12-24T18:40:07.919Z,75.48
2022-12-24T18:42:46.287Z,75.46
2022-12-24T18:45:18.625Z,75.23
2022-12-24T18:47:52.751Z,74.98
2022-12-24T18:50:26.189Z,74.95
2022-12-24T18:53:00.173Z,74.77
2022-12-24T18:55:38.503Z,74.94
2022-12-24T18:58:11.176Z,74.77
2022-12-24T19:00:44.209Z,74.48
2022-12-24T19:03:17.948Z,74.45
2022-12-24T19:05:51.576Z,74.49
2022-12-24T19:11:19.036Z,74.44
2022-12-24T19:13:53.524Z,74.72
2022-12-24T19:16:31.316Z,74.46
2022-12-24T19:19:07.572Z,74.55
2022-12-24T19:21:42.868Z,74.49
2022-12-24T19:24:17.293Z,74.43
2022-12-24T19:26:53.919Z,74.66
2022-12-24T19:29:26.823Z,74.71
2022-12-24T19:32:03.712Z,74.66
2022-12-24T19:34:38.575Z,74.79
2022-12-24T19:37:12.483Z,74.84
2022-12-24T19:39:47.013Z,74.96
2022-12-24T19:42:19.871Z,74.86
2022-12-24T19:44:54.928Z,74.66
2022-12-24T19:47:28.780Z,74.56
2022-12-24T19:50:06.127Z,74.65
2022-12-24T19:52:41.257Z,74.91
2022-12-24T19:55:15.999Z,74.49
2022-12-24T19:57:50.197Z,74.51
2022-12-24T20:00:24.036Z,74.22
2022-12-24T20:02:57.643Z,73.91
2022-12-24T20:05:33.917Z,74.00
2022-12-24T20:08:08.499Z,74.03
2022-12-24T20:10:44.655Z,73.99
2022-12-24T20:13:20.924Z,74.12
2022-12-24T20:15:55.732Z,74.17
2022-12-24T20:18:32.516Z,74.46
2022-12-24T20:21:13.881Z,74.23
2022-12-24T20:23:56.420Z,73.77
2022-12-24T20:26:33.785Z,74.26
2022-12-24T20:29:12.459Z,74.72
2022-12-24T20:31:54.171Z,74.63
2022-12-24T20:34:31.183Z,74.17
2022-12-24T20:37:04.888Z,74.59
2022-12-24T20:39:38.214Z,74.58
2022-12-24T20:42:11.896Z,74.60
2022-12-24T20:44:46.023Z,74.46
2022-12-24T20:47:20.729Z,74.07
2022-12-24T20:49:53.924Z,73.78
2022-12-24T20:52:28.659Z,73.73
2022-12-24T20:55:01.639Z,73.51
2022-12-24T20:57:36.895Z,73.42
2022-12-24T21:00:12.046Z,73.21
2022-12-24T21:02:46.373Z,72.95
2022-12-24T21:05:20.866Z,73.08
2022-12-24T21:07:56.225Z,73.30
2022-12-24T21:10:34.194Z,73.23
2022-12-24T21:13:08.687Z,73.22
2022-12-24T21:15:43.001Z,73.37
2022-12-24T21:18:17.738Z,73.24
2022-12-24T21:20:54.287Z,73.53
2022-12-24T21:23:31.135Z,73.59
2022-12-24T21:26:04.936Z,73.00
2022-12-24T21:28:39.001Z,73.08
2022-12-24T21:31:16.750Z,73.02
2022-12-24T21:33:51.303Z,72.81
2022-12-24T21:36:25.345Z,73.23
2022-12-24T21:38:58.989Z,74.22
2022-12-24T21:41:32.069Z,74.19
2022-12-24T21:44:06.296Z,74.19
2022-12-24T21:46:40.095Z,73.80
2022-12-24T21:49:31.435Z,73.46
2022-12-24T21:52:05.214Z,73.63
2022-12-24T21:54:39.396Z,73.61
2022-12-24T21:57:31.584Z,73.05
2022-12-24T22:00:20.422Z,73.04
2022-12-24T22:02:55.845Z,72.66
2022-12-24T22:05:30.050Z,72.78
2022-12-24T22:08:25.404Z,72.93
2022-12-24T22:11:27.935Z,72.95
2022-12-24T22:14:00.939Z,73.11
2022-12-24T22:16:36.466Z,72.92
2022-12-24T22:19:11.652Z,73.31
2022-12-24T22:21:49.458Z,73.20
2022-12-24T22:24:22.040Z,73.01
2022-12-24T22:26:55.298Z,73.10
2022-12-24T22:29:29.647Z,73.23
2022-12-24T22:32:02.271Z,73.28
2022-12-24T22:34:38.486Z,73.17
2022-12-24T22:37:13.688Z,73.10
2022-12-24T22:39:48.563Z,73.01
2022-12-24T22:42:21.623Z,73.12
2022-12-24T22:44:57.877Z,73.19
2022-12-24T22:47:32.207Z,73.38
2022-12-24T22:50:07.661Z,73.72
2022-12-24T22:52:44.933Z,73.78
2022-12-24T22:55:19.566Z,73.72
2022-12-24T22:57:53.387Z,73.78
2022-12-24T23:03:25.587Z,73.95
2022-12-24T23:06:03.098Z,74.05
2022-12-24T23:08:37.216Z,74.25
2022-12-24T23:11:15.877Z,74.33
2022-12-24T23:14:07.180Z,74.34
2022-12-24T23:16:42.594Z,74.49
2022-12-24T23:19:16.306Z,74.44
2022-12-24T23:21:51.545Z,74.42
2022-12-24T23:24:24.511Z,74.41
2022-12-24T23:27:02.293Z,74.46
2022-12-24T23:29:36.359Z,74.27
2022-12-24T23:32:12.776Z,74.27
2022-12-24T23:34:46.934Z,74.39
2022-12-24T23:37:19.272Z,74.53
2022-12-24T23:39:53.769Z,74.45
2022-12-24T23:42:26.853Z,74.34
2022-12-24T23:45:01.618Z,74.19
2022-12-24T23:47:33.904Z,74.13
2022-12-24T23:50:10.126Z,74.25
2022-12-24T23:52:42.996Z,74.28
2022-12-24T23:55:15.853Z,74.21
2022-12-24T23:57:50.551Z,74.19
